Boswell, Indiana
Current Conditions -  °F | °C
As of 6:20 PM on Thursday 27 Nov 2014 (Local Time) from KLAF Reporting Station
Light Snow Light Snow  
Wind Chill: 16°   Ceiling: 4200
Heat Index: 25°   Visibility: 5mi
Dew Point: 21°   Wind: 8mph
Humidity: 85%   Direction: 310°NW
Pressure: 30.39"   Gusts: NA
Location:  40.52°N, 87.38°W
Report Text: KLAF 272320Z AUTO 31007KT 5SM -SN BR SCT024 SCT032 OVC042 M04/M06 A3039 RMK AO2 P0000 T10391061 TSNO
Loading
Personal Weather Stations






























Interactive Weather Map New forecast layout! Learn more

10-Day Weather Forecast

Advertisements
Track Severe Weather on mobile